createdAt,value
2023-04-04T00:00:15.952Z,0.02
2023-04-04T00:03:13.168Z,-0.03
2023-04-04T00:05:57.531Z,-0.09
2023-04-04T00:08:21.976Z,-0.13
2023-04-04T00:10:59.322Z,-0.17
2023-04-04T00:13:33.635Z,-0.23
2023-04-04T00:16:18.093Z,-0.31
2023-04-04T00:19:02.433Z,-0.37
2023-04-04T00:21:39.500Z,-0.41
2023-04-04T00:24:06.690Z,-0.43
2023-04-04T00:26:37.996Z,-0.45
2023-04-04T00:29:13.412Z,-0.49
2023-04-04T00:31:57.724Z,-0.54
2023-04-04T00:34:42.712Z,-0.59
2023-04-04T00:37:07.252Z,-0.63
2023-04-04T00:39:31.744Z,-0.66
2023-04-04T00:42:16.205Z,-0.70
2023-04-04T00:44:51.952Z,-0.74
2023-04-04T00:47:19.203Z,-0.78
2023-04-04T00:50:03.854Z,-0.85
2023-04-04T00:52:39.465Z,-0.87
2023-04-04T00:55:17.648Z,-0.93
2023-04-04T00:58:02.178Z,-0.98
2023-04-04T01:00:36.006Z,-1.02
2023-04-04T01:03:17.838Z,-1.06
2023-04-04T01:05:52.188Z,-1.09
2023-04-04T01:08:23.345Z,-1.11
2023-04-04T01:11:07.381Z,-1.13
2023-04-04T01:13:46.625Z,-1.17
2023-04-04T01:16:30.597Z,-1.20
2023-04-04T01:19:21.688Z,-1.26
2023-04-04T01:22:08.382Z,-1.28
2023-04-04T01:24:55.565Z,-1.31
2023-04-04T01:27:29.523Z,-1.35
2023-04-04T01:30:16.388Z,-1.37
2023-04-04T01:32:51.525Z,-1.42
2023-04-04T01:35:43.614Z,-1.46
2023-04-04T01:38:24.904Z,-1.52
2023-04-04T01:41:12.575Z,-1.53
2023-04-04T01:43:56.861Z,-1.55
2023-04-04T01:46:41.318Z,-1.58
2023-04-04T01:49:25.174Z,-1.60
2023-04-04T01:51:52.546Z,-1.62
2023-04-04T01:54:36.765Z,-1.64
2023-04-04T01:57:19.695Z,-1.66
2023-04-04T01:59:47.183Z,-1.68
2023-04-04T02:02:20.032Z,-1.72
2023-04-04T02:05:04.650Z,-1.76
2023-04-04T02:07:38.901Z,-1.79
2023-04-04T02:10:22.862Z,-1.80
2023-04-04T02:13:06.893Z,-1.85
2023-04-04T02:15:51.878Z,-1.87
2023-04-04T02:18:18.825Z,-1.90
2023-04-04T02:21:02.982Z,-1.92
2023-04-04T02:23:26.939Z,-1.94
2023-04-04T02:26:11.080Z,-1.95
2023-04-04T02:28:38.237Z,-1.97
2023-04-04T02:31:16.339Z,-1.98
2023-04-04T02:34:00.753Z,-2.00
2023-04-04T02:36:45.310Z,-2.01
2023-04-04T02:39:29.707Z,-2.04
2023-04-04T02:42:13.865Z,-2.07
2023-04-04T02:44:42.236Z,-2.09
2023-04-04T02:47:25.414Z,-2.12
2023-04-04T02:50:11.338Z,-2.14
2023-04-04T02:52:45.805Z,-2.15
2023-04-04T02:55:11.110Z,-2.16
2023-04-04T02:57:55.130Z,-2.17
2023-04-04T03:00:30.209Z,-2.17
2023-04-04T03:03:14.560Z,-2.18
2023-04-04T03:05:50.872Z,-2.19
2023-04-04T03:08:35.156Z,-2.20
2023-04-04T03:11:09.044Z,-2.21
2023-04-04T03:13:43.569Z,-2.23
2023-04-04T03:16:28.917Z,-2.24
2023-04-04T03:18:56.870Z,-2.25
2023-04-04T03:21:40.868Z,-2.28
2023-04-04T03:24:25.250Z,-2.30
2023-04-04T03:27:02.098Z,-2.31
2023-04-04T03:29:46.647Z,-2.32
2023-04-04T03:32:31.122Z,-2.32
2023-04-04T03:35:15.975Z,-2.34
2023-04-04T03:37:42.607Z,-2.34
2023-04-04T03:40:09.438Z,-2.35
2023-04-04T03:42:47.555Z,-2.36
2023-04-04T03:45:35.189Z,-2.36
2023-04-04T03:48:11.241Z,-2.36
2023-04-04T03:50:38.539Z,-2.37
2023-04-04T03:53:02.481Z,-2.36
2023-04-04T03:55:34.544Z,-2.36
2023-04-04T03:58:18.789Z,-2.37
2023-04-04T04:01:03.261Z,-2.37
2023-04-04T04:03:32.812Z,-2.36
2023-04-04T04:06:09.115Z,-2.34
2023-04-04T04:08:33.296Z,-2.32
2023-04-04T04:11:17.548Z,-2.31
2023-04-04T04:13:41.732Z,-2.31
2023-04-04T04:16:25.861Z,-2.30
2023-04-04T04:19:03.066Z,-2.25
2023-04-04T04:21:47.800Z,-2.13
2023-04-04T04:24:16.934Z,-1.86
2023-04-04T04:27:01.278Z,-1.47
2023-04-04T04:29:25.466Z,-1.25
2023-04-04T04:32:10.243Z,-0.80
2023-04-04T04:34:39.012Z,-0.11
2023-04-04T04:37:06.886Z,0.67
2023-04-04T04:39:40.788Z,1.55
2023-04-04T04:42:15.449Z,2.39
2023-04-04T04:44:45.739Z,3.19
2023-04-04T04:47:12.070Z,4.04
2023-04-04T04:49:46.042Z,4.91
2023-04-04T04:52:11.002Z,5.68
2023-04-04T04:54:38.798Z,6.53
2023-04-04T04:57:02.565Z,7.42
2023-04-04T04:59:27.280Z,8.24
2023-04-04T05:01:51.454Z,9.01
2023-04-04T05:04:17.104Z,9.86
2023-04-04T05:06:51.632Z,10.72
2023-04-04T05:09:15.421Z,11.60
2023-04-04T05:11:39.110Z,12.44
2023-04-04T05:14:04.642Z,13.30
2023-04-04T05:16:32.788Z,13.98
2023-04-04T05:18:57.241Z,14.69
2023-04-04T05:21:21.154Z,15.35
2023-04-04T05:23:45.813Z,15.99
2023-04-04T05:26:10.499Z,16.74
2023-04-04T05:28:36.472Z,17.38
2023-04-04T05:31:01.632Z,17.89
2023-04-04T05:33:26.941Z,18.28
2023-04-04T05:36:17.025Z,18.73
2023-04-04T05:38:48.538Z,19.29
2023-04-04T05:41:12.960Z,19.81
2023-04-04T05:43:37.450Z,20.15
2023-04-04T05:46:05.526Z,20.24
2023-04-04T05:48:34.520Z,20.38
2023-04-04T05:50:58.966Z,20.41
2023-04-04T05:53:32.198Z,20.84
2023-04-04T05:55:58.301Z,21.27
2023-04-04T05:58:26.962Z,21.46
2023-04-04T06:00:52.519Z,21.73
2023-04-04T06:03:17.464Z,21.89
2023-04-04T06:05:44.176Z,21.88
2023-04-04T06:08:08.875Z,22.38
2023-04-04T06:10:32.435Z,22.58
2023-04-04T06:12:56.620Z,22.53
2023-04-04T06:15:20.367Z,22.91
2023-04-04T06:17:44.607Z,23.15
2023-04-04T06:20:10.789Z,23.19
2023-04-04T06:22:34.694Z,23.08
2023-04-04T06:24:59.548Z,23.17
2023-04-04T06:27:24.104Z,23.70
2023-04-04T06:29:48.599Z,23.95
2023-04-04T06:32:15.653Z,23.92
2023-04-04T06:34:40.420Z,23.95
2023-04-04T06:37:05.694Z,23.65
2023-04-04T06:39:35.368Z,24.11
2023-04-04T06:42:03.058Z,24.79
2023-04-04T06:44:29.973Z,25.62
2023-04-04T06:46:53.878Z,26.20
2023-04-04T06:49:17.576Z,26.56
2023-04-04T06:51:41.764Z,27.50
2023-04-04T06:54:05.739Z,28.33
2023-04-04T06:56:29.658Z,28.59
2023-04-04T06:58:53.408Z,29.02
2023-04-04T07:01:18.531Z,29.64
2023-04-04T07:03:44.036Z,30.12
2023-04-04T07:06:07.801Z,30.05
2023-04-04T07:08:36.211Z,30.23
2023-04-04T07:11:00.929Z,30.95
2023-04-04T07:13:24.619Z,31.57
2023-04-04T07:15:49.418Z,31.41
2023-04-04T07:18:13.099Z,31.14
2023-04-04T07:20:37.054Z,31.11
2023-04-04T07:23:01.093Z,30.81
2023-04-04T07:25:25.638Z,30.93
2023-04-04T07:27:50.438Z,31.30
2023-04-04T07:30:17.133Z,31.16
2023-04-04T07:32:41.099Z,29.58
2023-04-04T07:35:06.154Z,27.83
2023-04-04T07:37:29.813Z,25.93
2023-04-04T07:39:53.848Z,25.52
2023-04-04T07:42:22.416Z,25.65
2023-04-04T07:44:46.006Z,24.80
2023-04-04T07:47:10.902Z,23.84
2023-04-04T07:49:34.554Z,22.80
2023-04-04T07:51:58.471Z,22.17
2023-04-04T07:54:23.484Z,21.83
2023-04-04T07:56:47.559Z,21.53
2023-04-04T07:59:11.501Z,21.01
2023-04-04T08:01:36.574Z,19.92
2023-04-04T08:04:00.579Z,19.29
2023-04-04T08:06:24.797Z,18.86
2023-04-04T08:08:48.961Z,17.41
2023-04-04T08:11:12.978Z,17.02
2023-04-04T08:13:36.718Z,17.50
2023-04-04T08:16:00.882Z,18.37
2023-04-04T08:18:24.826Z,19.29
2023-04-04T08:20:48.844Z,20.19
2023-04-04T08:23:13.180Z,20.89
2023-04-04T08:25:37.413Z,21.28
2023-04-04T08:28:03.367Z,20.93
2023-04-04T08:30:28.013Z,21.46
2023-04-04T08:32:51.602Z,21.27
2023-04-04T08:35:15.537Z,20.80
2023-04-04T08:37:44.150Z,20.60
2023-04-04T08:40:10.133Z,20.84
2023-04-04T08:42:36.205Z,20.11
2023-04-04T08:45:03.977Z,18.94
2023-04-04T08:47:29.673Z,18.68
2023-04-04T08:49:54.510Z,18.09
2023-04-04T08:52:21.035Z,17.40
2023-04-04T08:54:45.824Z,16.46
2023-04-04T08:57:09.515Z,15.44
2023-04-04T08:59:34.475Z,14.88
2023-04-04T09:02:05.091Z,14.22
2023-04-04T09:04:30.741Z,13.70
2023-04-04T09:06:55.561Z,13.83
2023-04-04T09:09:26.973Z,13.52
2023-04-04T09:11:52.185Z,12.90
2023-04-04T09:14:16.340Z,12.52
2023-04-04T09:16:40.878Z,13.06
2023-04-04T09:19:04.844Z,13.74
2023-04-04T09:21:34.730Z,13.77
2023-04-04T09:24:02.431Z,13.32
2023-04-04T09:26:26.569Z,12.76
2023-04-04T09:28:59.300Z,12.15
2023-04-04T09:31:25.552Z,11.42
2023-04-04T09:33:50.483Z,10.72
2023-04-04T09:36:17.127Z,10.18
2023-04-04T09:38:48.405Z,9.84
2023-04-04T09:41:18.426Z,9.90
2023-04-04T09:43:46.705Z,10.68
2023-04-04T09:46:10.488Z,11.57
2023-04-04T09:48:37.170Z,12.68
2023-04-04T09:51:03.608Z,13.06
2023-04-04T09:53:27.958Z,12.53
2023-04-04T09:55:53.402Z,11.90
2023-04-04T09:58:18.759Z,11.18
2023-04-04T10:00:47.859Z,10.46
2023-04-04T10:03:16.413Z,9.79
2023-04-04T10:05:40.165Z,9.42
2023-04-04T10:08:15.778Z,9.54
2023-04-04T10:10:58.796Z,9.53
2023-04-04T10:13:47.453Z,9.16
2023-04-04T10:16:12.243Z,8.60
2023-04-04T10:18:37.121Z,8.14
2023-04-04T10:21:15.830Z,7.76
2023-04-04T10:23:42.566Z,7.51
2023-04-04T10:26:09.398Z,7.35
2023-04-04T10:28:54.642Z,7.16
2023-04-04T10:31:24.322Z,7.09
2023-04-04T10:34:07.423Z,7.08
2023-04-04T10:36:54.426Z,6.96
2023-04-04T10:39:26.021Z,6.93
2023-04-04T10:41:59.915Z,6.88
2023-04-04T10:44:45.957Z,6.79
2023-04-04T10:47:31.252Z,6.60
2023-04-04T10:49:58.915Z,6.49
2023-04-04T10:52:39.181Z,6.35
2023-04-04T10:55:08.674Z,6.21
2023-04-04T10:57:34.124Z,6.12
2023-04-04T11:00:05.082Z,6.10
2023-04-04T11:02:53.866Z,6.08
2023-04-04T11:05:23.190Z,5.99
2023-04-04T11:10:31.332Z,5.64
2023-04-04T11:13:17.050Z,5.51
2023-04-04T11:15:53.016Z,5.40
2023-04-04T11:18:48.561Z,5.72
2023-04-04T11:21:16.586Z,5.98
2023-04-04T11:24:16.607Z,6.02
2023-04-04T11:26:55.515Z,5.97
2023-04-04T11:29:52.979Z,5.86
2023-04-04T11:32:33.552Z,5.69
2023-04-04T11:34:58.547Z,5.45
2023-04-04T11:37:25.071Z,5.27
2023-04-04T11:39:56.939Z,5.09
2023-04-04T11:42:39.085Z,4.87
2023-04-04T11:45:27.118Z,4.58
2023-04-04T11:47:53.908Z,4.46
2023-04-04T11:50:20.349Z,4.43
2023-04-04T11:52:54.773Z,4.40
2023-04-04T11:55:23.461Z,4.43
2023-04-04T11:57:54.903Z,4.55
2023-04-04T12:00:31.657Z,4.67
2023-04-04T12:03:17.853Z,4.74
2023-04-04T12:05:46.404Z,4.74
2023-04-04T12:08:33.116Z,4.70
2023-04-04T12:11:06.942Z,4.56
2023-04-04T12:13:33.418Z,4.41
2023-04-04T12:16:19.691Z,4.26
2023-04-04T12:18:44.516Z,4.16
2023-04-04T12:21:18.016Z,4.07
2023-04-04T12:23:42.004Z,3.96
2023-04-04T12:26:29.214Z,3.86
2023-04-04T12:28:57.505Z,3.78
2023-04-04T12:31:24.718Z,3.67
2023-04-04T12:33:52.105Z,3.59
2023-04-04T12:36:16.556Z,3.57
2023-04-04T12:38:58.543Z,3.56
2023-04-04T12:41:22.740Z,3.60
2023-04-04T12:43:47.657Z,3.63
2023-04-04T12:46:12.190Z,3.68
2023-04-04T12:48:57.167Z,3.75
2023-04-04T12:51:33.083Z,3.78
2023-04-04T12:54:07.448Z,3.81
2023-04-04T12:56:56.686Z,3.89
2023-04-04T12:59:46.972Z,4.01
2023-04-04T13:02:31.949Z,4.12
2023-04-04T13:05:17.513Z,4.23
2023-04-04T13:08:07.636Z,4.32
2023-04-04T13:11:01.883Z,4.38
2023-04-04T13:16:30.368Z,4.38
2023-04-04T13:19:03.462Z,4.28
2023-04-04T13:21:47.606Z,4.15
2023-04-04T13:24:11.355Z,4.10
2023-04-04T13:26:35.471Z,4.04
2023-04-04T13:28:59.329Z,4.01
2023-04-04T13:31:24.165Z,4.03
2023-04-04T13:33:48.028Z,4.06
2023-04-04T13:36:13.827Z,4.06
2023-04-04T13:38:57.276Z,4.07
2023-04-04T13:41:29.964Z,4.07
2023-04-04T13:43:56.697Z,4.07
2023-04-04T13:46:20.642Z,4.03
2023-04-04T13:48:52.260Z,3.98
2023-04-04T13:51:27.462Z,3.92
2023-04-04T13:53:53.400Z,3.96
2023-04-04T13:56:20.734Z,4.04
2023-04-04T13:58:49.592Z,4.22
2023-04-04T14:01:13.945Z,4.43
2023-04-04T14:03:38.031Z,4.62
2023-04-04T14:08:48.683Z,4.78
2023-04-04T14:11:16.029Z,4.93
2023-04-04T14:13:42.247Z,4.97
2023-04-04T14:16:15.637Z,4.90
2023-04-04T14:18:59.925Z,4.81
2023-04-04T14:21:27.911Z,4.72
2023-04-04T14:24:04.248Z,4.67
2023-04-04T14:26:31.913Z,4.60
2023-04-04T14:29:00.366Z,4.48
2023-04-04T14:31:34.619Z,4.41
2023-04-04T14:34:18.730Z,4.33
2023-04-04T14:36:45.964Z,4.28
2023-04-04T14:39:22.336Z,4.19
2023-04-04T14:41:49.400Z,4.15
2023-04-04T14:44:22.125Z,4.15
2023-04-04T14:46:46.094Z,4.14
2023-04-04T14:49:30.332Z,4.11
2023-04-04T14:51:56.916Z,4.12
2023-04-04T14:54:21.060Z,4.19
2023-04-04T14:56:48.230Z,4.28
2023-04-04T14:59:12.403Z,4.35
2023-04-04T15:01:38.622Z,4.43
2023-04-04T15:04:06.937Z,4.49
2023-04-04T15:06:35.612Z,4.49
2023-04-04T15:08:59.424Z,4.45
2023-04-04T15:11:23.509Z,4.34
2023-04-04T15:13:49.933Z,4.19
2023-04-04T15:16:21.305Z,4.10
2023-04-04T15:18:55.702Z,4.06
2023-04-04T15:21:39.952Z,3.97
2023-04-04T15:24:07.227Z,3.91
2023-04-04T15:26:43.161Z,3.86
2023-04-04T15:29:09.703Z,3.83
2023-04-04T15:31:33.602Z,3.76
2023-04-04T15:34:00.622Z,3.73
2023-04-04T15:36:45.045Z,3.70
2023-04-04T15:39:10.688Z,3.65
2023-04-04T15:41:34.461Z,3.60
2023-04-04T15:44:08.983Z,3.58
2023-04-04T15:46:51.912Z,3.58
2023-04-04T15:49:36.050Z,3.57
2023-04-04T15:52:20.514Z,3.56
2023-04-04T15:54:47.758Z,3.58
2023-04-04T15:57:31.709Z,3.55
2023-04-04T15:59:58.558Z,3.47
2023-04-04T16:02:31.861Z,3.40
2023-04-04T16:04:56.025Z,3.34
2023-04-04T16:07:40.483Z,3.28
2023-04-04T16:10:24.520Z,3.19
2023-04-04T16:12:51.513Z,3.12
2023-04-04T16:15:15.647Z,3.09
2023-04-04T16:18:00.780Z,3.05
2023-04-04T16:20:44.768Z,3.01
2023-04-04T16:23:08.739Z,3.01
2023-04-04T16:25:54.527Z,2.98
2023-04-04T16:28:22.193Z,2.94
2023-04-04T16:30:46.105Z,2.93
2023-04-04T16:33:12.188Z,2.92
2023-04-04T16:35:45.586Z,2.88
2023-04-04T16:38:29.956Z,2.85
2023-04-04T16:41:08.464Z,2.82
2023-04-04T16:43:49.124Z,2.83
2023-04-04T16:46:33.396Z,2.82
2023-04-04T16:48:57.223Z,2.80
2023-04-04T16:51:21.225Z,2.78
2023-04-04T16:53:48.660Z,2.76
2023-04-04T16:56:12.775Z,2.72
2023-04-04T16:58:36.678Z,2.71
2023-04-04T17:01:04.175Z,2.72
2023-04-04T17:03:30.679Z,2.72
2023-04-04T17:06:01.161Z,2.71
2023-04-04T17:08:27.821Z,2.69
2023-04-04T17:10:54.024Z,2.68
2023-04-04T17:13:25.379Z,2.66
2023-04-04T17:15:52.419Z,2.66
2023-04-04T17:18:16.294Z,2.63
2023-04-04T17:20:43.140Z,2.62
2023-04-04T17:23:27.697Z,2.61
2023-04-04T17:25:51.461Z,2.59
2023-04-04T17:28:26.610Z,2.58
2023-04-04T17:30:53.612Z,2.57
2023-04-04T17:33:20.557Z,2.57
2023-04-04T17:35:47.959Z,2.56
2023-04-04T17:38:12.248Z,2.56
2023-04-04T17:40:36.212Z,2.56
2023-04-04T17:43:03.359Z,2.55
2023-04-04T17:45:28.974Z,2.54
2023-04-04T17:47:52.895Z,2.53
2023-04-04T17:50:18.214Z,2.51
2023-04-04T17:52:42.564Z,2.48
2023-04-04T17:55:08.812Z,2.46
2023-04-04T17:57:36.237Z,2.42
2023-04-04T18:00:03.789Z,2.42
2023-04-04T18:02:31.796Z,2.42
2023-04-04T18:04:57.276Z,2.41
2023-04-04T18:07:24.131Z,2.40
2023-04-04T18:09:50.960Z,2.39
2023-04-04T18:12:17.368Z,2.37
2023-04-04T18:15:03.277Z,2.37
2023-04-04T18:17:27.893Z,2.37
2023-04-04T18:19:54.029Z,2.35
2023-04-04T18:22:28.115Z,2.34
2023-04-04T18:24:52.149Z,2.34
2023-04-04T18:27:24.971Z,2.32
2023-04-04T18:29:53.211Z,2.32
2023-04-04T18:32:24.930Z,2.34
2023-04-04T18:34:51.654Z,2.34
2023-04-04T18:37:16.271Z,2.35
2023-04-04T18:39:40.107Z,2.36
2023-04-04T18:42:09.627Z,2.37
2023-04-04T18:44:47.721Z,2.36
2023-04-04T18:47:11.494Z,2.37
2023-04-04T18:49:35.786Z,2.39
2023-04-04T18:52:02.620Z,2.40
2023-04-04T18:54:29.975Z,2.40
2023-04-04T18:56:57.223Z,2.39
2023-04-04T18:59:22.244Z,2.37
2023-04-04T19:02:06.345Z,2.34
2023-04-04T19:04:32.805Z,2.31
2023-04-04T19:07:11.786Z,2.28
2023-04-04T19:09:38.093Z,2.26
2023-04-04T19:12:03.443Z,2.26
2023-04-04T19:14:27.707Z,2.23
2023-04-04T19:16:55.522Z,2.23
2023-04-04T19:19:20.862Z,2.24
2023-04-04T19:21:45.016Z,2.25
2023-04-04T19:24:12.261Z,2.25
2023-04-04T19:26:35.978Z,2.27
2023-04-04T19:29:00.080Z,2.27
2023-04-04T19:31:32.246Z,2.27
2023-04-04T19:33:56.368Z,2.26
2023-04-04T19:36:40.813Z,2.22
2023-04-04T19:39:09.524Z,2.19
2023-04-04T19:41:36.897Z,2.14
2023-04-04T19:44:01.493Z,2.09
2023-04-04T19:46:36.404Z,2.03
2023-04-04T19:49:02.777Z,1.98
2023-04-04T19:51:38.658Z,1.92
2023-04-04T19:54:05.595Z,1.86
2023-04-04T19:56:29.803Z,1.79
2023-04-04T19:59:45.991Z,1.73
2023-04-04T20:02:49.853Z,1.68
2023-04-04T20:05:57.076Z,1.59
2023-04-04T20:08:23.474Z,1.51
2023-04-04T20:10:47.506Z,1.46
2023-04-04T20:13:13.634Z,1.42
2023-04-04T20:18:42.843Z,1.37
2023-04-04T20:21:12.556Z,1.34
2023-04-04T20:23:46.059Z,1.29
2023-04-04T20:26:16.291Z,1.24
2023-04-04T20:28:45.165Z,1.18
2023-04-04T20:31:16.967Z,1.13
2023-04-04T20:33:56.056Z,1.09
2023-04-04T20:36:34.579Z,1.04
2023-04-04T20:39:02.063Z,1.00
2023-04-04T20:41:32.577Z,0.96
2023-04-04T20:44:00.631Z,0.93
2023-04-04T20:46:37.098Z,0.91
2023-04-04T20:49:08.862Z,0.89
2023-04-04T20:51:42.368Z,0.88
2023-04-04T20:54:12.634Z,0.87
2023-04-04T20:56:52.356Z,0.86
2023-04-04T20:59:34.579Z,0.86
2023-04-04T21:02:09.361Z,0.87
2023-04-04T21:04:37.375Z,0.90
2023-04-04T21:07:06.246Z,0.91
2023-04-04T21:09:36.547Z,0.93
2023-04-04T21:12:04.312Z,0.94
2023-04-04T21:14:39.920Z,0.94
2023-04-04T21:17:10.340Z,0.94
2023-04-04T21:19:37.593Z,0.93
2023-04-04T21:22:07.048Z,0.92
2023-04-04T21:24:37.103Z,0.89
2023-04-04T21:27:07.535Z,0.87
2023-04-04T21:29:37.808Z,0.84
2023-04-04T21:32:08.158Z,0.82
2023-04-04T21:34:36.502Z,0.79
2023-04-04T21:37:25.995Z,0.74
2023-04-04T21:40:03.610Z,0.70
2023-04-04T21:42:33.192Z,0.67
2023-04-04T21:45:00.385Z,0.65
2023-04-04T21:47:28.223Z,0.62
2023-04-04T21:49:55.771Z,0.60
2023-04-04T21:52:26.092Z,0.59
2023-04-04T21:54:53.246Z,0.57
2023-04-04T21:57:20.328Z,0.55
2023-04-04T21:59:47.378Z,0.52
2023-04-04T22:02:17.152Z,0.50
2023-04-04T22:04:47.867Z,0.47
2023-04-04T22:07:15.034Z,0.45
2023-04-04T22:09:46.591Z,0.43
2023-04-04T22:12:16.129Z,0.39
2023-04-04T22:14:52.788Z,0.39
2023-04-04T22:17:23.718Z,0.37
2023-04-04T22:19:59.951Z,0.32
2023-04-04T22:22:37.240Z,0.27
2023-04-04T22:25:14.746Z,0.22
2023-04-04T22:27:44.905Z,0.17
2023-04-04T22:30:16.218Z,0.12
2023-04-04T22:32:47.405Z,0.08
2023-04-04T22:35:15.171Z,0.05
2023-04-04T22:37:46.169Z,0.00
2023-04-04T22:40:17.532Z,-0.04
2023-04-04T22:42:45.080Z,-0.08
2023-04-04T22:45:16.984Z,-0.13
2023-04-04T22:47:48.596Z,-0.16
2023-04-04T22:50:27.359Z,-0.18
2023-04-04T22:53:14.886Z,-0.21
2023-04-04T22:55:42.535Z,-0.24
2023-04-04T22:58:10.175Z,-0.27
2023-04-04T23:00:37.534Z,-0.30
2023-04-04T23:03:08.007Z,-0.33
2023-04-04T23:05:37.767Z,-0.35
2023-04-04T23:08:05.556Z,-0.36
2023-04-04T23:10:35.863Z,-0.40
2023-04-04T23:13:18.111Z,-0.44
2023-04-04T23:15:47.718Z,-0.47
2023-04-04T23:18:19.119Z,-0.50
2023-04-04T23:21:07.569Z,-0.53
2023-04-04T23:23:55.200Z,-0.56
2023-04-04T23:26:33.102Z,-0.59
2023-04-04T23:29:20.814Z,-0.63
2023-04-04T23:31:51.267Z,-0.67
2023-04-04T23:34:39.408Z,-0.70
2023-04-04T23:37:07.724Z,-0.72
2023-04-04T23:39:37.561Z,-0.74
2023-04-04T23:42:14.985Z,-0.75
2023-04-04T23:44:42.544Z,-0.78
2023-04-04T23:47:10.004Z,-0.80
2023-04-04T23:49:40.435Z,-0.82
2023-04-04T23:52:09.478Z,-0.83
2023-04-04T23:54:39.056Z,-0.85
2023-04-04T23:57:07.024Z,-0.86
2023-04-04T23:59:47.496Z,-0.88
